Time;durP1;ratioP1;P1;durP2;ratioP2;P2;SDS_P1;SDS_P2;PMS_P1;PMS_P2;Temp;Humidity;BMP_temperature;BMP_pressure;BME280_temperature;BME280_humidity;BME280_pressure;Samples;Min_cycle;Max_cycle;Signal;HPM_P1;HPM_P2
2023/01/12 00:02:21;;;;;;;6.25;5.53;;;;;;;;;;10310099;28;20040;-64
2023/01/12 00:07:20;;;;;;;7.25;6.32;;;;;;;;;;10318821;28;20065;-64
2023/01/12 00:12:19;;;;;;;6.53;5.65;;;;;;;;;;10317688;28;20048;-63
2023/01/12 00:17:18;;;;;;;7.47;6.63;;;;;;;;;;10318130;28;20036;-65
2023/01/12 00:22:17;;;;;;;8.30;6.20;;;;;;;;;;10316634;28;20142;-64
2023/01/12 00:27:17;;;;;;;6.78;6.18;;;;;;;;;;10317693;28;20080;-64
2023/01/12 00:32:17;;;;;;;8.98;7.03;;;;;;;;;;10318029;28;20072;-64
2023/01/12 00:37:15;;;;;;;7.60;6.82;;;;;;;;;;10303393;28;20072;-64
2023/01/12 00:47:43;;;;;;;11.48;7.10;;;;;;;;;;10210479;28;20080;-64
2023/01/12 00:52:42;;;;;;;11.00;7.32;;;;;;;;;;10314956;28;20084;-64
2023/01/12 00:57:40;;;;;;;9.80;8.05;;;;;;;;;;10316635;28;20056;-63
2023/01/12 01:02:38;;;;;;;12.30;7.13;;;;;;;;;;10316033;28;20060;-63
2023/01/12 01:07:38;;;;;;;8.93;6.63;;;;;;;;;;10279742;28;20547;-65
2023/01/12 01:12:36;;;;;;;7.25;5.95;;;;;;;;;;10285961;28;20045;-63
2023/01/12 01:17:34;;;;;;;8.20;6.30;;;;;;;;;;10317499;28;20064;-64
2023/01/12 01:22:33;;;;;;;10.45;7.20;;;;;;;;;;10315762;28;20041;-64
2023/01/12 01:27:32;;;;;;;8.23;7.05;;;;;;;;;;10301813;28;20064;-64
2023/01/12 01:32:30;;;;;;;6.53;5.90;;;;;;;;;;10315700;28;20047;-64
2023/01/12 01:37:29;;;;;;;6.75;5.53;;;;;;;;;;10315247;28;20045;-63
2023/01/12 01:42:28;;;;;;;6.82;6.05;;;;;;;;;;10314342;28;20040;-64
2023/01/12 01:47:30;;;;;;;6.43;5.82;;;;;;;;;;10301964;28;20064;-63
2023/01/12 01:52:31;;;;;;;6.90;5.80;;;;;;;;;;10313689;28;20514;-65
2023/01/12 01:57:31;;;;;;;7.60;5.93;;;;;;;;;;10314129;28;20076;-64
2023/01/12 02:02:31;;;;;;;6.18;5.30;;;;;;;;;;10313453;28;20048;-65
2023/01/12 02:07:29;;;;;;;8.13;6.43;;;;;;;;;;10314285;28;20068;-64
2023/01/12 02:17:49;;;;;;;7.70;6.90;;;;;;;;;;10312517;28;20123;-65
2023/01/12 02:23:02;;;;;;;7.60;6.03;;;;;;;;;;10312701;28;20122;-63
2023/01/12 02:28:16;;;;;;;8.23;6.25;;;;;;;;;;10313005;28;20068;-64
2023/01/12 02:33:23;;;;;;;7.65;6.13;;;;;;;;;;10312709;28;20036;-64
2023/01/12 02:38:24;;;;;;;9.98;7.30;;;;;;;;;;10313093;28;20106;-65
2023/01/12 02:43:24;;;;;;;9.52;7.28;;;;;;;;;;10312507;28;20041;-65
2023/01/12 02:48:27;;;;;;;9.90;6.97;;;;;;;;;;10311546;28;20075;-66
2023/01/12 02:53:29;;;;;;;10.48;7.90;;;;;;;;;;10312621;28;20057;-65
2023/01/12 02:58:29;;;;;;;8.60;6.78;;;;;;;;;;10313149;28;20080;-64
2023/01/12 03:03:29;;;;;;;10.32;8.00;;;;;;;;;;10311986;28;20374;-64
2023/01/12 03:08:29;;;;;;;8.32;6.63;;;;;;;;;;10310681;28;20497;-64
2023/01/12 03:13:28;;;;;;;10.52;7.50;;;;;;;;;;10311005;28;20041;-64
2023/01/12 03:18:33;;;;;;;7.60;6.18;;;;;;;;;;10312193;28;20040;-64
2023/01/12 03:23:34;;;;;;;5.97;5.30;;;;;;;;;;10310438;28;20051;-65
2023/01/12 03:28:33;;;;;;;5.28;4.78;;;;;;;;;;10309209;28;20072;-64
2023/01/12 03:33:33;;;;;;;10.75;7.78;;;;;;;;;;10309489;28;20480;-64
2023/01/12 03:38:35;;;;;;;9.05;6.95;;;;;;;;;;10309356;28;20481;-64
2023/01/12 03:43:37;;;;;;;25.27;15.82;;;;;;;;;;10309525;28;20489;-64
2023/01/12 03:48:38;;;;;;;13.48;7.93;;;;;;;;;;10307672;28;20094;-64
2023/01/12 03:53:38;;;;;;;9.40;8.32;;;;;;;;;;10281811;28;20490;-65
2023/01/12 03:58:36;;;;;;;21.02;13.23;;;;;;;;;;10296349;28;20095;-65
2023/01/12 04:03:35;;;;;;;11.88;8.70;;;;;;;;;;10294376;28;20508;-64
2023/01/12 04:08:34;;;;;;;12.60;9.40;;;;;;;;;;10306568;28;20114;-64
2023/01/12 04:13:33;;;;;;;21.90;12.63;;;;;;;;;;10306289;28;20531;-63
2023/01/12 04:18:31;;;;;;;10.43;9.32;;;;;;;;;;10313149;28;20507;-64
2023/01/12 04:23:29;;;;;;;13.75;11.43;;;;;;;;;;10315092;28;20071;-64
2023/01/12 04:28:29;;;;;;;12.95;8.95;;;;;;;;;;10313878;28;20143;-65
2023/01/12 04:33:27;;;;;;;13.40;9.45;;;;;;;;;;10313819;28;20128;-64
2023/01/12 04:38:25;;;;;;;8.75;7.80;;;;;;;;;;10312604;28;20087;-65
2023/01/12 04:43:23;;;;;;;14.98;13.40;;;;;;;;;;10311971;28;20049;-65
2023/01/12 04:48:23;;;;;;;22.35;13.40;;;;;;;;;;10308531;28;20107;-64
2023/01/12 04:53:23;;;;;;;18.20;14.23;;;;;;;;;;10298512;28;20382;-65
2023/01/12 04:58:21;;;;;;;16.13;13.00;;;;;;;;;;10298227;28;20032;-65
2023/01/12 05:03:19;;;;;;;26.65;17.33;;;;;;;;;;10287724;28;20056;-65
2023/01/12 05:13:35;;;;;;;14.63;11.60;;;;;;;;;;10295127;28;20047;-64
2023/01/12 05:18:33;;;;;;;11.07;9.38;;;;;;;;;;10312477;28;20065;-65
2023/01/12 05:23:32;;;;;;;15.32;11.75;;;;;;;;;;10290543;28;20060;-66
2023/01/12 05:28:31;;;;;;;25.02;17.80;;;;;;;;;;10314257;28;20485;-65
2023/01/12 05:33:29;;;;;;;30.92;23.38;;;;;;;;;;10306829;28;20087;-65
2023/01/12 05:38:30;;;;;;;9.98;7.68;;;;;;;;;;10317093;28;20516;-65
2023/01/12 05:48:45;;;;;;;8.38;6.32;;;;;;;;;;10270281;28;20080;-65
2023/01/12 05:53:43;;;;;;;16.20;11.93;;;;;;;;;;10272093;28;20130;-65
2023/01/12 05:58:43;;;;;;;10.85;9.75;;;;;;;;;;10278455;28;20151;-64
2023/01/12 06:03:41;;;;;;;22.38;14.10;;;;;;;;;;10280067;28;20064;-65
2023/01/12 06:08:39;;;;;;;11.57;8.85;;;;;;;;;;10273717;28;20552;-66
2023/01/12 06:19:05;;;;;;;10.98;6.53;;;;;;;;;;10239723;28;20076;-66
2023/01/12 06:24:04;;;;;;;9.10;8.23;;;;;;;;;;10271751;28;20052;-66
2023/01/12 06:29:05;;;;;;;15.07;11.73;;;;;;;;;;10286826;28;20045;-66
2023/01/12 06:34:04;;;;;;;28.42;18.33;;;;;;;;;;10317661;28;20048;-65
2023/01/12 06:39:04;;;;;;;30.27;17.27;;;;;;;;;;10316222;28;20043;-67
2023/01/12 06:44:02;;;;;;;13.18;11.27;;;;;;;;;;10316532;28;20042;-67
2023/01/12 06:49:00;;;;;;;35.03;23.75;;;;;;;;;;10316072;28;20079;-65
2023/01/12 06:53:58;;;;;;;29.83;19.35;;;;;;;;;;10315271;28;20090;-66
2023/01/12 06:58:58;;;;;;;29.58;20.67;;;;;;;;;;10311888;28;20044;-64
2023/01/12 07:03:56;;;;;;;21.20;15.95;;;;;;;;;;10310137;28;20079;-64
2023/01/12 07:08:54;;;;;;;24.92;17.33;;;;;;;;;;10309971;28;20052;-65
2023/01/12 07:13:52;;;;;;;42.58;26.98;;;;;;;;;;10313509;28;20203;-64
2023/01/12 07:18:52;;;;;;;9.27;6.70;;;;;;;;;;10313841;28;20079;-66
2023/01/12 07:23:50;;;;;;;18.23;14.48;;;;;;;;;;10313740;28;20075;-65
2023/01/12 07:28:48;;;;;;;10.38;7.90;;;;;;;;;;10299061;28;20116;-64
2023/01/12 07:33:46;;;;;;;14.55;12.90;;;;;;;;;;10299806;28;20072;-65
2023/01/12 07:38:46;;;;;;;11.65;10.07;;;;;;;;;;10312418;28;20121;-65
2023/01/12 07:43:44;;;;;;;21.67;17.88;;;;;;;;;;10311335;28;20033;-64
2023/01/12 07:48:43;;;;;;;32.42;23.98;;;;;;;;;;10311230;28;20076;-65
2023/01/12 07:53:41;;;;;;;50.38;37.17;;;;;;;;;;10294590;28;20127;-64
2023/01/12 07:58:40;;;;;;;32.40;23.85;;;;;;;;;;10285837;28;20068;-66
2023/01/12 08:03:39;;;;;;;32.50;25.00;;;;;;;;;;10315422;28;20052;-66
2023/01/12 08:08:37;;;;;;;45.70;32.53;;;;;;;;;;10316831;28;20068;-64
2023/01/12 08:13:36;;;;;;;55.05;43.47;;;;;;;;;;10310185;28;20449;-65
2023/01/12 08:18:37;;;;;;;62.13;48.75;;;;;;;;;;10268456;28;20088;-64
2023/01/12 08:23:37;;;;;;;57.47;39.70;;;;;;;;;;10295049;28;20056;-65
2023/01/12 08:28:42;;;;;;;74.25;46.80;;;;;;;;;;10313934;28;20059;-65
2023/01/12 08:33:42;;;;;;;30.65;22.30;;;;;;;;;;10311895;28;20040;-65
2023/01/12 08:38:40;;;;;;;50.90;37.40;;;;;;;;;;10314114;28;20040;-65
2023/01/12 08:48:55;;;;;;;65.90;46.20;;;;;;;;;;10299041;28;20052;-65
2023/01/12 08:53:53;;;;;;;73.97;48.70;;;;;;;;;;10314252;28;20403;-65
2023/01/12 08:58:51;;;;;;;49.35;35.42;;;;;;;;;;10311943;28;20044;-65
2023/01/12 09:03:49;;;;;;;37.58;26.73;;;;;;;;;;10312840;28;20051;-65
2023/01/12 09:08:52;;;;;;;28.38;21.42;;;;;;;;;;10314813;28;20048;-65
2023/01/12 09:13:51;;;;;;;29.92;20.65;;;;;;;;;;10314666;28;20087;-66
2023/01/12 09:18:49;;;;;;;20.25;13.93;;;;;;;;;;10287320;28;20552;-64
2023/01/12 09:23:49;;;;;;;24.17;20.00;;;;;;;;;;10270542;28;20119;-65
2023/01/12 09:28:47;;;;;;;50.05;38.88;;;;;;;;;;10274147;28;20051;-65
2023/01/12 09:33:46;;;;;;;39.38;32.30;;;;;;;;;;10270653;28;20084;-65
2023/01/12 09:38:45;;;;;;;58.50;42.50;;;;;;;;;;10270898;28;20065;-64
2023/01/12 09:49:00;;;;;;;43.30;31.67;;;;;;;;;;10269213;28;20371;-64
2023/01/12 09:53:59;;;;;;;39.35;29.05;;;;;;;;;;10270793;28;20103;-64
2023/01/12 09:59:06;;;;;;;84.82;54.80;;;;;;;;;;10266939;28;20087;-65
2023/01/12 10:04:05;;;;;;;90.03;55.00;;;;;;;;;;10263818;28;20061;-64
2023/01/12 10:09:04;;;;;;;91.65;55.60;;;;;;;;;;10272366;28;20485;-64
2023/01/12 10:14:10;;;;;;;67.22;47.15;;;;;;;;;;10274077;28;20080;-65
2023/01/12 10:19:13;;;;;;;44.42;30.98;;;;;;;;;;10281157;28;20048;-64
2023/01/12 10:24:11;;;;;;;46.00;34.35;;;;;;;;;;10270131;28;20045;-64
2023/01/12 10:29:12;;;;;;;46.47;32.75;;;;;;;;;;10272399;28;20048;-63
2023/01/12 10:34:11;;;;;;;43.05;30.98;;;;;;;;;;10277748;28;20072;-64
2023/01/12 10:39:26;;;;;;;41.45;32.03;;;;;;;;;;10269715;28;20075;-64
2023/01/12 10:44:26;;;;;;;41.10;29.08;;;;;;;;;;10295061;28;20585;-64
2023/01/12 10:49:25;;;;;;;32.25;24.80;;;;;;;;;;10269597;28;20727;-63
2023/01/12 10:54:25;;;;;;;33.03;27.17;;;;;;;;;;10272264;28;20482;-64
2023/01/12 10:59:25;;;;;;;72.75;44.60;;;;;;;;;;10267484;28;20091;-65
2023/01/12 11:04:28;;;;;;;79.32;50.33;;;;;;;;;;10268561;28;20069;-65
2023/01/12 11:09:27;;;;;;;66.43;43.45;;;;;;;;;;10277906;28;20041;-65
2023/01/12 11:14:27;;;;;;;81.25;43.08;;;;;;;;;;10270353;28;20117;-65
2023/01/12 11:19:30;;;;;;;57.05;34.75;;;;;;;;;;10263908;28;20053;-65
2023/01/12 11:24:32;;;;;;;43.67;29.48;;;;;;;;;;10269252;28;20100;-65
2023/01/12 11:29:34;;;;;;;31.25;21.60;;;;;;;;;;10295026;28;20060;-65
2023/01/12 11:34:38;;;;;;;32.70;23.90;;;;;;;;;;10290541;28;20095;-64
2023/01/12 11:39:36;;;;;;;36.65;29.17;;;;;;;;;;10296775;28;20045;-64
2023/01/12 11:44:37;;;;;;;28.15;22.77;;;;;;;;;;10278868;28;20060;-65
2023/01/12 11:49:39;;;;;;;71.55;47.72;;;;;;;;;;10273173;28;20520;-65
2023/01/12 11:54:38;;;;;;;90.43;59.58;;;;;;;;;;10303464;28;20083;-64
2023/01/12 11:59:39;;;;;;;98.75;58.20;;;;;;;;;;10308648;28;20167;-64
2023/01/12 12:04:49;;;;;;;46.63;35.50;;;;;;;;;;10306767;28;20470;-64
2023/01/12 12:10:00;;;;;;;52.25;39.95;;;;;;;;;;10285287;28;20177;-65
2023/01/12 12:15:04;;;;;;;78.70;53.42;;;;;;;;;;10293499;28;20087;-63
2023/01/12 12:20:09;;;;;;;60.30;40.63;;;;;;;;;;10271181;28;20049;-65
2023/01/12 12:25:17;;;;;;;70.38;56.42;;;;;;;;;;10289873;28;20041;-65
2023/01/12 12:30:31;;;;;;;46.22;37.22;;;;;;;;;;10281419;28;20075;-65
2023/01/12 12:35:42;;;;;;;30.77;26.95;;;;;;;;;;10272685;28;20069;-66
2023/01/12 12:46:03;;;;;;;19.90;17.73;;;;;;;;;;10302203;28;20174;-64
2023/01/12 12:51:05;;;;;;;21.05;17.58;;;;;;;;;;10274966;28;20072;-65
2023/01/12 12:56:05;;;;;;;24.77;19.58;;;;;;;;;;10270298;28;20466;-64
2023/01/12 13:01:22;;;;;;;21.23;17.20;;;;;;;;;;10272802;28;20068;-65
2023/01/12 13:06:24;;;;;;;50.45;29.25;;;;;;;;;;10279492;28;20099;-63
2023/01/12 13:11:44;;;;;;;60.92;32.65;;;;;;;;;;10279706;28;20105;-64
2023/01/12 13:16:46;;;;;;;62.60;33.63;;;;;;;;;;10283981;28;20049;-64
2023/01/12 13:21:57;;;;;;;33.03;23.92;;;;;;;;;;10317494;28;20044;-66
2023/01/12 13:26:59;;;;;;;34.08;21.50;;;;;;;;;;10273875;28;20084;-65
2023/01/12 13:31:58;;;;;;;30.75;22.80;;;;;;;;;;10271589;28;20068;-64
2023/01/12 13:37:07;;;;;;;23.58;20.67;;;;;;;;;;10267954;28;20215;-65
2023/01/12 13:47:24;;;;;;;49.88;38.42;;;;;;;;;;10270905;28;20048;-64
2023/01/12 13:52:27;;;;;;;30.55;25.15;;;;;;;;;;10270571;28;20083;-65
2023/01/12 13:57:26;;;;;;;40.25;30.70;;;;;;;;;;10261455;28;20081;-65
2023/01/12 14:02:24;;;;;;;18.98;15.63;;;;;;;;;;10291589;28;20040;-64
2023/01/12 14:07:40;;;;;;;30.70;22.90;;;;;;;;;;10275737;28;20404;-65
2023/01/12 14:12:38;;;;;;;;;;;;;;;;;;10273280;28;20132;-65
2023/01/12 14:17:56;;;;;;;39.22;30.67;;;;;;;;;;10274401;28;20012;-63
2023/01/12 14:23:14;;;;;;;40.47;29.45;;;;;;;;;;10286610;28;20049;-65
2023/01/12 14:28:15;;;;;;;39.20;31.50;;;;;;;;;;10264125;28;20505;-65
2023/01/12 14:33:16;;;;;;;36.00;26.42;;;;;;;;;;10303132;28;20540;-64
2023/01/12 14:38:17;;;;;;;79.15;56.95;;;;;;;;;;10304349;28;20118;-65
2023/01/12 14:48:33;;;;;;;83.75;66.95;;;;;;;;;;10306283;28;20079;-66
2023/01/12 14:53:34;;;;;;;39.50;32.90;;;;;;;;;;10308465;28;20088;-64
2023/01/12 14:58:32;;;;;;;51.03;41.92;;;;;;;;;;10309760;28;20056;-64
2023/01/12 15:03:31;;;;;;;54.88;40.33;;;;;;;;;;10307296;28;21311;-63
2023/01/12 15:08:51;;;;;;;57.13;40.13;;;;;;;;;;10308502;28;20409;-66
2023/01/12 15:13:55;;;;;;;78.80;51.75;;;;;;;;;;10308341;28;20068;-65
2023/01/12 15:29:28;;;;;;;59.53;43.45;;;;;;;;;;10307281;28;20027;-63
2023/01/12 15:34:26;;;;;;;81.03;49.25;;;;;;;;;;10292546;28;20091;-63
2023/01/12 15:39:25;;;;;;;53.65;37.75;;;;;;;;;;10305860;28;20044;-64
2023/01/12 15:44:23;;;;;;;107.03;77.22;;;;;;;;;;10292569;28;20089;-66
2023/01/12 15:49:23;;;;;;;35.65;24.83;;;;;;;;;;10306942;28;20091;-65
2023/01/12 15:54:21;;;;;;;113.25;66.25;;;;;;;;;;10306994;28;20110;-66
2023/01/12 15:59:20;;;;;;;107.50;60.88;;;;;;;;;;10306852;28;20154;-63
2023/01/12 16:04:21;;;;;;;159.45;96.68;;;;;;;;;;10306384;28;20060;-65
2023/01/12 16:09:40;;;;;;;168.48;105.38;;;;;;;;;;10306649;28;20079;-64
2023/01/12 16:14:39;;;;;;;99.45;61.30;;;;;;;;;;10296902;28;20198;-64
2023/01/12 16:19:40;;;;;;;79.63;57.05;;;;;;;;;;10314879;28;20056;-65
2023/01/12 16:24:40;;;;;;;54.35;41.22;;;;;;;;;;10313431;28;20061;-65
2023/01/12 16:29:38;;;;;;;93.45;60.80;;;;;;;;;;10314358;28;20446;-65
2023/01/12 16:34:37;;;;;;;66.75;44.33;;;;;;;;;;10313144;28;20104;-64
2023/01/12 16:39:35;;;;;;;71.70;51.10;;;;;;;;;;10312372;28;20170;-63
2023/01/12 16:44:36;;;;;;;56.90;41.55;;;;;;;;;;10287472;28;20083;-63
2023/01/12 16:49:34;;;;;;;63.58;41.05;;;;;;;;;;10288498;28;20069;-64
2023/01/12 16:54:35;;;;;;;67.13;43.67;;;;;;;;;;10269638;28;20112;-63
2023/01/12 16:59:35;;;;;;;60.97;46.88;;;;;;;;;;10276103;28;20069;-63
2023/01/12 17:04:34;;;;;;;60.95;46.55;;;;;;;;;;10282467;28;20052;-64
2023/01/12 17:09:34;;;;;;;50.13;38.22;;;;;;;;;;10288506;28;20091;-63
2023/01/12 17:14:33;;;;;;;32.05;24.58;;;;;;;;;;10288638;28;20079;-64
2023/01/12 17:19:34;;;;;;;20.40;16.88;;;;;;;;;;10293491;28;20077;-62
2023/01/12 17:24:33;;;;;;;33.92;27.40;;;;;;;;;;10279028;28;20041;-64
2023/01/12 17:29:31;;;;;;;37.03;26.73;;;;;;;;;;10265666;28;20151;-63
2023/01/12 17:34:30;;;;;;;66.03;44.30;;;;;;;;;;10272363;28;20072;-63
2023/01/12 17:39:30;;;;;;;48.00;32.72;;;;;;;;;;10266493;28;20059;-64
2023/01/12 17:44:31;;;;;;;55.58;34.10;;;;;;;;;;10298776;28;20037;-64
2023/01/12 17:49:30;;;;;;;46.80;33.30;;;;;;;;;;10278059;28;20127;-64
2023/01/12 17:54:29;;;;;;;59.65;40.25;;;;;;;;;;10269933;28;20537;-64
2023/01/12 17:59:28;;;;;;;73.68;50.15;;;;;;;;;;10288004;28;20045;-64
2023/01/12 18:04:26;;;;;;;85.15;54.63;;;;;;;;;;10284633;28;20044;-63
2023/01/12 18:09:26;;;;;;;61.88;39.88;;;;;;;;;;10274518;28;20073;-64
2023/01/12 18:14:26;;;;;;;76.75;52.45;;;;;;;;;;10269901;28;20123;-64
2023/01/12 18:19:24;;;;;;;74.35;48.67;;;;;;;;;;10268108;28;20060;-65
2023/01/12 18:24:23;;;;;;;80.03;54.28;;;;;;;;;;10272063;28;20064;-65
2023/01/12 18:29:21;;;;;;;44.08;37.75;;;;;;;;;;10282943;28;20068;-64
2023/01/12 18:34:20;;;;;;;49.70;32.67;;;;;;;;;;10286750;28;20092;-63
2023/01/12 18:39:19;;;;;;;39.47;32.13;;;;;;;;;;10265938;28;20060;-64
2023/01/12 18:44:18;;;;;;;50.75;40.75;;;;;;;;;;10278486;28;20079;-63
2023/01/12 18:49:21;;;;;;;48.40;38.47;;;;;;;;;;10261561;28;20071;-64
2023/01/12 18:54:19;;;;;;;44.92;32.15;;;;;;;;;;10268812;28;20084;-63
2023/01/12 18:59:17;;;;;;;54.42;37.03;;;;;;;;;;10273223;28;20085;-64
2023/01/12 19:04:25;;;;;;;47.47;33.47;;;;;;;;;;10266632;28;20060;-63
2023/01/12 19:09:34;;;;;;;43.00;31.98;;;;;;;;;;10267351;28;20077;-64
2023/01/12 19:19:48;;;;;;;;;;;;;;;;;;10267584;28;20067;-64
2023/01/12 19:30:03;;;;;;;51.90;33.67;;;;;;;;;;10266892;28;20080;-64
2023/01/12 19:35:01;;;;;;;47.22;30.30;;;;;;;;;;10284558;28;20068;-64
2023/01/12 19:40:17;;;;;;;53.40;32.03;;;;;;;;;;10264734;28;20041;-64
2023/01/12 19:45:15;;;;;;;38.05;27.10;;;;;;;;;;10306837;28;20037;-64
2023/01/12 19:50:14;;;;;;;31.13;21.58;;;;;;;;;;10273641;28;20060;-64
2023/01/12 19:55:15;;;;;;;77.78;52.13;;;;;;;;;;10287174;28;20084;-64
2023/01/12 20:00:14;;;;;;;40.58;25.95;;;;;;;;;;10274389;28;20081;-64
2023/01/12 20:05:20;;;;;;;59.08;36.10;;;;;;;;;;10277630;28;20069;-64
2023/01/12 20:10:21;;;;;;;45.60;29.48;;;;;;;;;;10297695;28;20072;-64
2023/01/12 20:15:20;;;;;;;41.75;26.58;;;;;;;;;;10269660;28;20083;-64
2023/01/12 20:20:19;;;;;;;34.20;23.38;;;;;;;;;;10272538;28;20065;-64
2023/01/12 20:25:17;;;;;;;30.90;21.40;;;;;;;;;;10276446;28;20072;-63
2023/01/12 20:30:17;;;;;;;24.85;19.17;;;;;;;;;;10313395;28;20063;-65
2023/01/12 20:35:34;;;;;;;32.55;22.92;;;;;;;;;;10313992;28;20132;-64
2023/01/12 20:40:32;;;;;;;43.63;28.75;;;;;;;;;;10315706;28;20676;-64
2023/01/12 20:45:32;;;;;;;64.72;47.88;;;;;;;;;;10273003;28;20076;-63
2023/01/12 20:50:30;;;;;;;57.45;36.97;;;;;;;;;;10278445;28;20073;-64
2023/01/12 20:55:28;;;;;;;51.45;32.63;;;;;;;;;;10273352;28;20116;-64
2023/01/12 21:00:27;;;;;;;47.75;30.25;;;;;;;;;;10272442;28;20060;-64
2023/01/12 21:05:27;;;;;;;45.03;30.58;;;;;;;;;;10267904;28;20079;-64
2023/01/12 21:10:25;;;;;;;42.17;27.88;;;;;;;;;;10265663;28;20148;-64
2023/01/12 21:15:24;;;;;;;36.55;26.42;;;;;;;;;;10269998;28;20080;-65
2023/01/12 21:20:22;;;;;;;30.13;21.70;;;;;;;;;;10267763;28;20130;-63
2023/01/12 21:25:26;;;;;;;36.13;24.55;;;;;;;;;;10269420;28;20060;-63
2023/01/12 21:30:24;;;;;;;38.05;23.67;;;;;;;;;;10270085;28;20057;-63
2023/01/12 21:35:24;;;;;;;84.00;45.83;;;;;;;;;;10273405;28;20084;-64
2023/01/12 21:40:23;;;;;;;37.03;23.92;;;;;;;;;;10277035;28;20045;-64
2023/01/12 21:45:22;;;;;;;87.93;47.08;;;;;;;;;;10274848;28;20045;-65
2023/01/12 21:50:21;;;;;;;98.28;48.17;;;;;;;;;;10270669;28;20072;-65
2023/01/12 21:55:19;;;;;;;117.07;34.10;;;;;;;;;;10270505;28;20092;-63
2023/01/12 22:00:19;;;;;;;50.75;28.95;;;;;;;;;;10291865;28;20462;-64
2023/01/12 22:05:18;;;;;;;42.65;24.85;;;;;;;;;;10264965;28;20128;-65
2023/01/12 22:10:20;;;;;;;42.88;26.08;;;;;;;;;;10279917;28;20053;-64
2023/01/12 22:15:21;;;;;;;65.03;30.60;;;;;;;;;;10268049;28;20124;-65
2023/01/12 22:20:19;;;;;;;54.72;24.83;;;;;;;;;;10274863;28;20079;-64
2023/01/12 22:25:18;;;;;;;159.07;58.72;;;;;;;;;;10304818;28;20048;-65
2023/01/12 22:30:16;;;;;;;69.88;34.13;;;;;;;;;;10279932;28;20056;-64
2023/01/12 22:35:16;;;;;;;31.08;21.60;;;;;;;;;;10288117;28;20091;-65
2023/01/12 22:40:15;;;;;;;72.85;24.40;;;;;;;;;;10272021;28;20075;-65
2023/01/12 22:45:14;;;;;;;35.83;20.58;;;;;;;;;;10273941;28;20214;-64
2023/01/12 22:50:12;;;;;;;55.63;23.35;;;;;;;;;;10269595;28;20052;-64
2023/01/12 22:55:12;;;;;;;78.30;31.63;;;;;;;;;;10273702;28;20076;-65
2023/01/12 23:00:11;;;;;;;36.13;20.98;;;;;;;;;;10268175;28;20465;-64
2023/01/12 23:05:10;;;;;;;24.58;16.58;;;;;;;;;;10292132;28;20059;-65
2023/01/12 23:10:08;;;;;;;27.88;14.07;;;;;;;;;;10308242;28;20350;-63
2023/01/12 23:15:08;;;;;;;35.00;15.90;;;;;;;;;;10294466;28;20494;-63
2023/01/12 23:20:10;;;;;;;44.55;17.02;;;;;;;;;;10307634;28;20697;-63
2023/01/12 23:25:08;;;;;;;27.27;12.73;;;;;;;;;;10305329;28;20071;-64
2023/01/12 23:30:09;;;;;;;65.65;21.30;;;;;;;;;;10294161;28;20056;-63
2023/01/12 23:35:08;;;;;;;18.85;12.95;;;;;;;;;;10295785;28;20040;-64
2023/01/12 23:40:07;;;;;;;35.40;14.77;;;;;;;;;;10299653;28;20445;-63
2023/01/12 23:45:05;;;;;;;33.30;17.40;;;;;;;;;;10291745;28;20094;-63
2023/01/12 23:50:05;;;;;;;43.30;14.65;;;;;;;;;;10275409;28;20087;-64
2023/01/12 23:55:04;;;;;;;47.60;17.27;;;;;;;;;;10263983;28;20049;-64
